sensor_id;sensor_type;location;lat;lon;timestamp;P1;durP1;ratioP1;P2;durP2;ratioP2
57730;SDS011;43570;47.476;19.040;2023-04-30T00:01:58;10.63;;;8.20;;
57730;SDS011;43570;47.476;19.040;2023-04-30T00:04:23;9.73;;;8.38;;
57730;SDS011;43570;47.476;19.040;2023-04-30T00:06:49;10.25;;;8.80;;
57730;SDS011;43570;47.476;19.040;2023-04-30T00:09:14;10.65;;;8.45;;
57730;SDS011;43570;47.476;19.040;2023-04-30T00:11:39;10.63;;;8.52;;
57730;SDS011;43570;47.476;19.040;2023-04-30T00:14:05;9.52;;;8.20;;
57730;SDS011;43570;47.476;19.040;2023-04-30T00:16:30;10.52;;;8.80;;
57730;SDS011;43570;47.476;19.040;2023-04-30T00:18:56;12.90;;;8.52;;
57730;SDS011;43570;47.476;19.040;2023-04-30T00:21:21;11.27;;;8.25;;
57730;SDS011;43570;47.476;19.040;2023-04-30T00:23:46;10.32;;;8.63;;
57730;SDS011;43570;47.476;19.040;2023-04-30T00:26:12;9.05;;;7.80;;
57730;SDS011;43570;47.476;19.040;2023-04-30T00:28:37;11.55;;;7.95;;
57730;SDS011;43570;47.476;19.040;2023-04-30T00:31:03;11.50;;;8.43;;
57730;SDS011;43570;47.476;19.040;2023-04-30T00:33:31;11.65;;;8.43;;
57730;SDS011;43570;47.476;19.040;2023-04-30T00:35:56;10.75;;;8.02;;
57730;SDS011;43570;47.476;19.040;2023-04-30T00:38:21;12.55;;;9.02;;
57730;SDS011;43570;47.476;19.040;2023-04-30T00:40:47;11.00;;;8.52;;
57730;SDS011;43570;47.476;19.040;2023-04-30T00:43:13;9.60;;;8.55;;
57730;SDS011;43570;47.476;19.040;2023-04-30T00:45:38;13.23;;;8.02;;
57730;SDS011;43570;47.476;19.040;2023-04-30T00:48:04;9.48;;;7.90;;
57730;SDS011;43570;47.476;19.040;2023-04-30T00:50:29;11.30;;;8.77;;
57730;SDS011;43570;47.476;19.040;2023-04-30T00:52:55;10.13;;;8.30;;
57730;SDS011;43570;47.476;19.040;2023-04-30T00:55:21;11.70;;;8.52;;
57730;SDS011;43570;47.476;19.040;2023-04-30T00:57:46;10.95;;;8.50;;
57730;SDS011;43570;47.476;19.040;2023-04-30T01:00:12;12.75;;;8.80;;
57730;SDS011;43570;47.476;19.040;2023-04-30T01:02:38;9.57;;;7.87;;
57730;SDS011;43570;47.476;19.040;2023-04-30T01:05:04;10.65;;;8.38;;
57730;SDS011;43570;47.476;19.040;2023-04-30T01:07:30;9.73;;;8.25;;
57730;SDS011;43570;47.476;19.040;2023-04-30T01:09:56;9.65;;;8.27;;
57730;SDS011;43570;47.476;19.040;2023-04-30T01:12:25;11.00;;;8.60;;
57730;SDS011;43570;47.476;19.040;2023-04-30T01:15:03;11.18;;;8.38;;
57730;SDS011;43570;47.476;19.040;2023-04-30T01:20:19;11.95;;;8.02;;
57730;SDS011;43570;47.476;19.040;2023-04-30T01:22:48;11.07;;;8.55;;
57730;SDS011;43570;47.476;19.040;2023-04-30T01:28:11;10.38;;;8.88;;
57730;SDS011;43570;47.476;19.040;2023-04-30T01:30:41;11.05;;;8.85;;
57730;SDS011;43570;47.476;19.040;2023-04-30T01:33:09;10.88;;;9.32;;
57730;SDS011;43570;47.476;19.040;2023-04-30T01:40:52;13.02;;;9.65;;
57730;SDS011;43570;47.476;19.040;2023-04-30T01:51:45;11.48;;;8.80;;
57730;SDS011;43570;47.476;19.040;2023-04-30T01:54:16;11.23;;;9.30;;
57730;SDS011;43570;47.476;19.040;2023-04-30T01:57:11;11.63;;;8.98;;
57730;SDS011;43570;47.476;19.040;2023-04-30T01:59:38;11.52;;;10.32;;
57730;SDS011;43570;47.476;19.040;2023-04-30T02:02:04;12.43;;;8.98;;
57730;SDS011;43570;47.476;19.040;2023-04-30T02:04:30;11.25;;;9.07;;
57730;SDS011;43570;47.476;19.040;2023-04-30T02:06:56;11.98;;;9.32;;
57730;SDS011;43570;47.476;19.040;2023-04-30T02:09:22;11.30;;;9.02;;
57730;SDS011;43570;47.476;19.040;2023-04-30T02:11:48;12.52;;;9.43;;
57730;SDS011;43570;47.476;19.040;2023-04-30T02:14:14;12.50;;;9.40;;
57730;SDS011;43570;47.476;19.040;2023-04-30T02:16:39;12.25;;;9.27;;
57730;SDS011;43570;47.476;19.040;2023-04-30T02:19:04;11.30;;;9.82;;
57730;SDS011;43570;47.476;19.040;2023-04-30T02:21:30;13.68;;;10.30;;
57730;SDS011;43570;47.476;19.040;2023-04-30T02:23:55;12.20;;;10.52;;
57730;SDS011;43570;47.476;19.040;2023-04-30T02:26:21;14.30;;;10.85;;
57730;SDS011;43570;47.476;19.040;2023-04-30T02:28:46;12.82;;;10.27;;
57730;SDS011;43570;47.476;19.040;2023-04-30T02:31:12;11.70;;;10.15;;
57730;SDS011;43570;47.476;19.040;2023-04-30T02:33:37;11.05;;;9.27;;
57730;SDS011;43570;47.476;19.040;2023-04-30T02:36:02;11.25;;;9.40;;
57730;SDS011;43570;47.476;19.040;2023-04-30T02:38:28;10.50;;;9.35;;
57730;SDS011;43570;47.476;19.040;2023-04-30T02:40:53;10.75;;;9.23;;
57730;SDS011;43570;47.476;19.040;2023-04-30T02:43:19;10.95;;;9.38;;
57730;SDS011;43570;47.476;19.040;2023-04-30T02:45:44;11.80;;;10.48;;
57730;SDS011;43570;47.476;19.040;2023-04-30T02:48:10;11.73;;;9.98;;
57730;SDS011;43570;47.476;19.040;2023-04-30T02:50:35;12.60;;;10.38;;
57730;SDS011;43570;47.476;19.040;2023-04-30T02:53:01;11.75;;;10.07;;
57730;SDS011;43570;47.476;19.040;2023-04-30T02:55:26;12.20;;;10.70;;
57730;SDS011;43570;47.476;19.040;2023-04-30T02:57:52;11.95;;;10.75;;
57730;SDS011;43570;47.476;19.040;2023-04-30T03:00:17;11.93;;;9.60;;
57730;SDS011;43570;47.476;19.040;2023-04-30T03:02:43;12.50;;;10.07;;
57730;SDS011;43570;47.476;19.040;2023-04-30T03:05:08;11.32;;;10.13;;
57730;SDS011;43570;47.476;19.040;2023-04-30T03:07:34;13.05;;;10.18;;
57730;SDS011;43570;47.476;19.040;2023-04-30T03:10:00;11.48;;;10.27;;
57730;SDS011;43570;47.476;19.040;2023-04-30T03:12:25;13.38;;;11.32;;
57730;SDS011;43570;47.476;19.040;2023-04-30T03:14:50;11.75;;;10.43;;
57730;SDS011;43570;47.476;19.040;2023-04-30T03:17:16;14.38;;;10.73;;
57730;SDS011;43570;47.476;19.040;2023-04-30T03:19:41;13.55;;;10.55;;
57730;SDS011;43570;47.476;19.040;2023-04-30T03:22:07;14.80;;;10.98;;
57730;SDS011;43570;47.476;19.040;2023-04-30T03:24:32;12.90;;;11.02;;
57730;SDS011;43570;47.476;19.040;2023-04-30T03:26:57;12.20;;;10.70;;
57730;SDS011;43570;47.476;19.040;2023-04-30T03:29:23;14.02;;;10.90;;
57730;SDS011;43570;47.476;19.040;2023-04-30T03:31:48;12.88;;;11.57;;
57730;SDS011;43570;47.476;19.040;2023-04-30T03:34:13;12.98;;;11.12;;
57730;SDS011;43570;47.476;19.040;2023-04-30T03:36:39;12.10;;;10.55;;
57730;SDS011;43570;47.476;19.040;2023-04-30T03:39:05;12.73;;;10.43;;
57730;SDS011;43570;47.476;19.040;2023-04-30T03:41:31;12.35;;;10.82;;
57730;SDS011;43570;47.476;19.040;2023-04-30T03:43:57;13.68;;;11.02;;
57730;SDS011;43570;47.476;19.040;2023-04-30T03:46:22;13.25;;;11.12;;
57730;SDS011;43570;47.476;19.040;2023-04-30T03:48:48;13.93;;;11.15;;
57730;SDS011;43570;47.476;19.040;2023-04-30T03:51:13;11.93;;;10.73;;
57730;SDS011;43570;47.476;19.040;2023-04-30T03:53:38;14.75;;;11.98;;
57730;SDS011;43570;47.476;19.040;2023-04-30T03:56:04;11.90;;;10.65;;
57730;SDS011;43570;47.476;19.040;2023-04-30T03:58:29;12.98;;;10.73;;
57730;SDS011;43570;47.476;19.040;2023-04-30T04:00:55;13.73;;;12.00;;
57730;SDS011;43570;47.476;19.040;2023-04-30T04:03:20;13.88;;;11.43;;
57730;SDS011;43570;47.476;19.040;2023-04-30T04:05:46;12.98;;;11.65;;
57730;SDS011;43570;47.476;19.040;2023-04-30T04:08:12;14.70;;;11.63;;
57730;SDS011;43570;47.476;19.040;2023-04-30T04:10:37;13.25;;;11.85;;
57730;SDS011;43570;47.476;19.040;2023-04-30T04:13:04;14.32;;;12.68;;
57730;SDS011;43570;47.476;19.040;2023-04-30T04:15:30;14.73;;;13.02;;
57730;SDS011;43570;47.476;19.040;2023-04-30T04:17:55;14.40;;;12.98;;
57730;SDS011;43570;47.476;19.040;2023-04-30T04:20:21;17.67;;;12.95;;
57730;SDS011;43570;47.476;19.040;2023-04-30T04:22:46;13.90;;;12.35;;
57730;SDS011;43570;47.476;19.040;2023-04-30T04:25:12;13.70;;;12.30;;
57730;SDS011;43570;47.476;19.040;2023-04-30T04:27:37;16.77;;;12.10;;
57730;SDS011;43570;47.476;19.040;2023-04-30T04:30:03;15.98;;;14.30;;
57730;SDS011;43570;47.476;19.040;2023-04-30T04:32:28;14.68;;;12.80;;
57730;SDS011;43570;47.476;19.040;2023-04-30T04:34:54;18.30;;;15.73;;
57730;SDS011;43570;47.476;19.040;2023-04-30T04:37:21;17.48;;;15.57;;
57730;SDS011;43570;47.476;19.040;2023-04-30T04:39:46;15.07;;;13.50;;
57730;SDS011;43570;47.476;19.040;2023-04-30T04:42:12;17.08;;;15.27;;
57730;SDS011;43570;47.476;19.040;2023-04-30T04:44:39;20.37;;;18.37;;
57730;SDS011;43570;47.476;19.040;2023-04-30T04:47:05;23.17;;;20.88;;
57730;SDS011;43570;47.476;19.040;2023-04-30T04:49:30;23.20;;;21.00;;
57730;SDS011;43570;47.476;19.040;2023-04-30T04:51:56;24.83;;;22.52;;
57730;SDS011;43570;47.476;19.040;2023-04-30T04:54:21;23.87;;;21.65;;
57730;SDS011;43570;47.476;19.040;2023-04-30T04:56:46;23.73;;;21.37;;
57730;SDS011;43570;47.476;19.040;2023-04-30T04:59:12;22.75;;;20.65;;
57730;SDS011;43570;47.476;19.040;2023-04-30T05:01:37;24.05;;;21.70;;
57730;SDS011;43570;47.476;19.040;2023-04-30T05:04:03;24.63;;;22.33;;
57730;SDS011;43570;47.476;19.040;2023-04-30T05:06:28;23.98;;;21.50;;
57730;SDS011;43570;47.476;19.040;2023-04-30T05:08:54;23.02;;;20.88;;
57730;SDS011;43570;47.476;19.040;2023-04-30T05:11:20;23.80;;;21.48;;
57730;SDS011;43570;47.476;19.040;2023-04-30T05:13:46;23.62;;;21.42;;
57730;SDS011;43570;47.476;19.040;2023-04-30T05:16:11;24.50;;;22.20;;
57730;SDS011;43570;47.476;19.040;2023-04-30T05:18:36;23.27;;;21.17;;
57730;SDS011;43570;47.476;19.040;2023-04-30T05:21:02;23.92;;;21.73;;
57730;SDS011;43570;47.476;19.040;2023-04-30T05:23:28;24.12;;;21.73;;
57730;SDS011;43570;47.476;19.040;2023-04-30T05:25:53;23.10;;;20.88;;
57730;SDS011;43570;47.476;19.040;2023-04-30T05:28:19;22.33;;;20.30;;
57730;SDS011;43570;47.476;19.040;2023-04-30T05:30:45;22.30;;;20.10;;
57730;SDS011;43570;47.476;19.040;2023-04-30T05:33:10;22.70;;;20.65;;
57730;SDS011;43570;47.476;19.040;2023-04-30T05:35:36;21.98;;;19.98;;
57730;SDS011;43570;47.476;19.040;2023-04-30T05:38:01;21.52;;;19.52;;
57730;SDS011;43570;47.476;19.040;2023-04-30T05:40:27;22.50;;;20.50;;
57730;SDS011;43570;47.476;19.040;2023-04-30T05:42:53;22.37;;;20.33;;
57730;SDS011;43570;47.476;19.040;2023-04-30T05:45:18;21.58;;;19.67;;
57730;SDS011;43570;47.476;19.040;2023-04-30T05:47:44;21.27;;;19.27;;
57730;SDS011;43570;47.476;19.040;2023-04-30T05:50:09;21.48;;;19.48;;
57730;SDS011;43570;47.476;19.040;2023-04-30T05:52:35;20.80;;;19.00;;
57730;SDS011;43570;47.476;19.040;2023-04-30T05:55:00;19.42;;;17.62;;
57730;SDS011;43570;47.476;19.040;2023-04-30T05:57:25;19.98;;;18.00;;
57730;SDS011;43570;47.476;19.040;2023-04-30T05:59:51;20.17;;;18.27;;
57730;SDS011;43570;47.476;19.040;2023-04-30T06:02:17;19.50;;;17.73;;
57730;SDS011;43570;47.476;19.040;2023-04-30T06:04:42;19.45;;;17.75;;
57730;SDS011;43570;47.476;19.040;2023-04-30T06:07:08;18.90;;;17.10;;
57730;SDS011;43570;47.476;19.040;2023-04-30T06:09:33;19.00;;;17.30;;
57730;SDS011;43570;47.476;19.040;2023-04-30T06:11:59;19.15;;;17.30;;
57730;SDS011;43570;47.476;19.040;2023-04-30T06:14:24;18.73;;;17.00;;
57730;SDS011;43570;47.476;19.040;2023-04-30T06:16:50;18.12;;;16.40;;
57730;SDS011;43570;47.476;19.040;2023-04-30T06:19:15;17.67;;;16.08;;
57730;SDS011;43570;47.476;19.040;2023-04-30T06:21:41;16.45;;;14.93;;
57730;SDS011;43570;47.476;19.040;2023-04-30T06:24:08;16.45;;;14.95;;
57730;SDS011;43570;47.476;19.040;2023-04-30T06:26:33;15.75;;;14.18;;
57730;SDS011;43570;47.476;19.040;2023-04-30T06:28:58;15.48;;;14.02;;
57730;SDS011;43570;47.476;19.040;2023-04-30T06:31:24;14.82;;;13.32;;
57730;SDS011;43570;47.476;19.040;2023-04-30T06:33:50;14.43;;;12.93;;
57730;SDS011;43570;47.476;19.040;2023-04-30T06:36:16;14.52;;;13.13;;
57730;SDS011;43570;47.476;19.040;2023-04-30T06:38:42;14.18;;;12.88;;
57730;SDS011;43570;47.476;19.040;2023-04-30T06:41:08;13.27;;;11.98;;
57730;SDS011;43570;47.476;19.040;2023-04-30T06:43:33;12.77;;;11.48;;
57730;SDS011;43570;47.476;19.040;2023-04-30T06:45:59;12.73;;;11.43;;
57730;SDS011;43570;47.476;19.040;2023-04-30T06:48:24;12.05;;;10.90;;
57730;SDS011;43570;47.476;19.040;2023-04-30T06:50:50;12.65;;;11.38;;
57730;SDS011;43570;47.476;19.040;2023-04-30T06:53:15;11.65;;;10.45;;
57730;SDS011;43570;47.476;19.040;2023-04-30T06:55:41;10.88;;;9.80;;
57730;SDS011;43570;47.476;19.040;2023-04-30T06:58:06;10.00;;;9.00;;
57730;SDS011;43570;47.476;19.040;2023-04-30T07:00:32;8.38;;;7.50;;
57730;SDS011;43570;47.476;19.040;2023-04-30T07:02:58;10.07;;;7.57;;
57730;SDS011;43570;47.476;19.040;2023-04-30T07:05:26;9.02;;;7.75;;
57730;SDS011;43570;47.476;19.040;2023-04-30T07:07:52;7.97;;;7.00;;
57730;SDS011;43570;47.476;19.040;2023-04-30T07:10:17;7.85;;;7.05;;
57730;SDS011;43570;47.476;19.040;2023-04-30T07:12:43;8.65;;;6.57;;
57730;SDS011;43570;47.476;19.040;2023-04-30T07:15:09;6.95;;;6.25;;
57730;SDS011;43570;47.476;19.040;2023-04-30T07:17:34;8.15;;;6.95;;
57730;SDS011;43570;47.476;19.040;2023-04-30T07:20:01;9.05;;;6.80;;
57730;SDS011;43570;47.476;19.040;2023-04-30T07:22:28;9.35;;;7.53;;
57730;SDS011;43570;47.476;19.040;2023-04-30T07:24:54;8.10;;;7.30;;
57730;SDS011;43570;47.476;19.040;2023-04-30T07:27:19;8.57;;;7.15;;
57730;SDS011;43570;47.476;19.040;2023-04-30T07:29:45;8.88;;;7.87;;
57730;SDS011;43570;47.476;19.040;2023-04-30T07:32:10;8.57;;;7.70;;
57730;SDS011;43570;47.476;19.040;2023-04-30T07:34:35;8.30;;;7.50;;
57730;SDS011;43570;47.476;19.040;2023-04-30T07:37:01;9.27;;;7.57;;
57730;SDS011;43570;47.476;19.040;2023-04-30T07:39:26;8.35;;;7.05;;
57730;SDS011;43570;47.476;19.040;2023-04-30T07:41:52;7.82;;;6.30;;
57730;SDS011;43570;47.476;19.040;2023-04-30T07:44:17;7.55;;;6.75;;
57730;SDS011;43570;47.476;19.040;2023-04-30T07:46:43;7.72;;;6.65;;
57730;SDS011;43570;47.476;19.040;2023-04-30T07:49:08;6.93;;;5.60;;
57730;SDS011;43570;47.476;19.040;2023-04-30T07:51:33;6.30;;;5.53;;
57730;SDS011;43570;47.476;19.040;2023-04-30T07:53:59;7.00;;;5.82;;
57730;SDS011;43570;47.476;19.040;2023-04-30T07:56:25;6.43;;;5.62;;
57730;SDS011;43570;47.476;19.040;2023-04-30T07:58:50;6.75;;;5.50;;
57730;SDS011;43570;47.476;19.040;2023-04-30T08:01:16;6.72;;;5.55;;
57730;SDS011;43570;47.476;19.040;2023-04-30T08:03:41;5.78;;;5.12;;
57730;SDS011;43570;47.476;19.040;2023-04-30T08:06:06;6.62;;;5.30;;
57730;SDS011;43570;47.476;19.040;2023-04-30T08:08:32;6.10;;;4.68;;
57730;SDS011;43570;47.476;19.040;2023-04-30T08:10:57;5.03;;;4.28;;
57730;SDS011;43570;47.476;19.040;2023-04-30T08:13:23;5.40;;;4.20;;
57730;SDS011;43570;47.476;19.040;2023-04-30T08:15:48;6.45;;;4.37;;
57730;SDS011;43570;47.476;19.040;2023-04-30T08:18:14;5.57;;;4.30;;
57730;SDS011;43570;47.476;19.040;2023-04-30T08:20:40;5.40;;;4.53;;
57730;SDS011;43570;47.476;19.040;2023-04-30T08:23:05;6.55;;;4.80;;
57730;SDS011;43570;47.476;19.040;2023-04-30T08:25:31;5.62;;;4.43;;
57730;SDS011;43570;47.476;19.040;2023-04-30T08:27:56;5.30;;;4.45;;
57730;SDS011;43570;47.476;19.040;2023-04-30T08:30:21;5.65;;;4.40;;
57730;SDS011;43570;47.476;19.040;2023-04-30T08:32:47;5.40;;;4.80;;
57730;SDS011;43570;47.476;19.040;2023-04-30T08:35:13;6.45;;;4.60;;
57730;SDS011;43570;47.476;19.040;2023-04-30T08:37:38;5.68;;;3.80;;
57730;SDS011;43570;47.476;19.040;2023-04-30T08:40:04;5.97;;;3.75;;
57730;SDS011;43570;47.476;19.040;2023-04-30T08:45:00;6.12;;;4.32;;
57730;SDS011;43570;47.476;19.040;2023-04-30T08:47:26;5.30;;;4.28;;
57730;SDS011;43570;47.476;19.040;2023-04-30T08:49:54;5.25;;;4.28;;
57730;SDS011;43570;47.476;19.040;2023-04-30T08:52:20;5.43;;;3.22;;
57730;SDS011;43570;47.476;19.040;2023-04-30T08:54:46;4.43;;;3.42;;
57730;SDS011;43570;47.476;19.040;2023-04-30T08:57:12;4.15;;;2.67;;
57730;SDS011;43570;47.476;19.040;2023-04-30T08:59:43;3.97;;;2.90;;
57730;SDS011;43570;47.476;19.040;2023-04-30T09:02:10;3.70;;;3.10;;
57730;SDS011;43570;47.476;19.040;2023-04-30T09:04:35;3.65;;;3.00;;
57730;SDS011;43570;47.476;19.040;2023-04-30T09:07:01;4.53;;;3.40;;
57730;SDS011;43570;47.476;19.040;2023-04-30T09:09:29;4.97;;;3.42;;
57730;SDS011;43570;47.476;19.040;2023-04-30T09:14:59;4.72;;;3.30;;
57730;SDS011;43570;47.476;19.040;2023-04-30T09:17:26;4.82;;;3.03;;
57730;SDS011;43570;47.476;19.040;2023-04-30T09:19:52;4.80;;;3.20;;
57730;SDS011;43570;47.476;19.040;2023-04-30T09:22:18;5.50;;;3.30;;
57730;SDS011;43570;47.476;19.040;2023-04-30T09:24:47;6.03;;;3.62;;
57730;SDS011;43570;47.476;19.040;2023-04-30T09:27:17;4.43;;;3.50;;
57730;SDS011;43570;47.476;19.040;2023-04-30T09:29:43;4.82;;;3.37;;
57730;SDS011;43570;47.476;19.040;2023-04-30T09:32:09;4.50;;;2.97;;
57730;SDS011;43570;47.476;19.040;2023-04-30T09:34:35;3.40;;;3.00;;
57730;SDS011;43570;47.476;19.040;2023-04-30T09:37:01;3.65;;;2.92;;
57730;SDS011;43570;47.476;19.040;2023-04-30T09:39:26;4.75;;;3.75;;
57730;SDS011;43570;47.476;19.040;2023-04-30T09:41:52;3.70;;;2.97;;
57730;SDS011;43570;47.476;19.040;2023-04-30T09:44:27;4.78;;;3.20;;
57730;SDS011;43570;47.476;19.040;2023-04-30T09:46:54;5.72;;;3.72;;
57730;SDS011;43570;47.476;19.040;2023-04-30T09:49:21;5.22;;;3.58;;
57730;SDS011;43570;47.476;19.040;2023-04-30T09:51:56;3.83;;;2.62;;
57730;SDS011;43570;47.476;19.040;2023-04-30T09:54:26;3.62;;;2.90;;
57730;SDS011;43570;47.476;19.040;2023-04-30T09:56:53;5.75;;;2.67;;
57730;SDS011;43570;47.476;19.040;2023-04-30T09:59:20;3.08;;;2.40;;
57730;SDS011;43570;47.476;19.040;2023-04-30T10:01:47;4.45;;;3.03;;
57730;SDS011;43570;47.476;19.040;2023-04-30T10:04:15;5.15;;;3.30;;
57730;SDS011;43570;47.476;19.040;2023-04-30T10:06:41;4.03;;;3.30;;
57730;SDS011;43570;47.476;19.040;2023-04-30T10:09:07;6.57;;;3.40;;
57730;SDS011;43570;47.476;19.040;2023-04-30T10:11:33;4.47;;;3.40;;
57730;SDS011;43570;47.476;19.040;2023-04-30T10:14:01;4.05;;;2.90;;
57730;SDS011;43570;47.476;19.040;2023-04-30T10:19:24;3.35;;;2.60;;
57730;SDS011;43570;47.476;19.040;2023-04-30T10:21:50;4.82;;;2.97;;
57730;SDS011;43570;47.476;19.040;2023-04-30T10:24:16;5.47;;;3.67;;
57730;SDS011;43570;47.476;19.040;2023-04-30T10:26:43;4.12;;;2.92;;
57730;SDS011;43570;47.476;19.040;2023-04-30T10:29:09;3.78;;;2.90;;
57730;SDS011;43570;47.476;19.040;2023-04-30T10:31:37;3.28;;;2.50;;
57730;SDS011;43570;47.476;19.040;2023-04-30T10:34:14;4.43;;;2.62;;
57730;SDS011;43570;47.476;19.040;2023-04-30T10:36:45;3.17;;;2.28;;
57730;SDS011;43570;47.476;19.040;2023-04-30T10:39:18;3.15;;;2.30;;
57730;SDS011;43570;47.476;19.040;2023-04-30T10:41:46;3.30;;;2.03;;
57730;SDS011;43570;47.476;19.040;2023-04-30T10:44:12;5.15;;;3.10;;
57730;SDS011;43570;47.476;19.040;2023-04-30T10:46:39;4.87;;;2.80;;
57730;SDS011;43570;47.476;19.040;2023-04-30T10:49:04;3.95;;;2.58;;
57730;SDS011;43570;47.476;19.040;2023-04-30T10:51:49;3.40;;;2.80;;
57730;SDS011;43570;47.476;19.040;2023-04-30T10:54:31;3.75;;;2.72;;
57730;SDS011;43570;47.476;19.040;2023-04-30T10:57:11;3.37;;;2.80;;
57730;SDS011;43570;47.476;19.040;2023-04-30T10:59:41;4.10;;;2.92;;
57730;SDS011;43570;47.476;19.040;2023-04-30T11:02:09;3.67;;;2.90;;
57730;SDS011;43570;47.476;19.040;2023-04-30T11:04:35;4.60;;;2.50;;
57730;SDS011;43570;47.476;19.040;2023-04-30T11:07:50;3.47;;;2.55;;
57730;SDS011;43570;47.476;19.040;2023-04-30T11:10:20;3.45;;;2.60;;
57730;SDS011;43570;47.476;19.040;2023-04-30T11:12:47;3.47;;;2.53;;
57730;SDS011;43570;47.476;19.040;2023-04-30T11:15:13;3.55;;;2.50;;
57730;SDS011;43570;47.476;19.040;2023-04-30T11:17:42;4.65;;;2.45;;
57730;SDS011;43570;47.476;19.040;2023-04-30T11:20:10;3.60;;;2.85;;
57730;SDS011;43570;47.476;19.040;2023-04-30T11:22:36;4.37;;;2.65;;
57730;SDS011;43570;47.476;19.040;2023-04-30T11:25:03;3.53;;;2.58;;
57730;SDS011;43570;47.476;19.040;2023-04-30T11:27:33;3.87;;;2.70;;
57730;SDS011;43570;47.476;19.040;2023-04-30T11:30:00;3.35;;;2.62;;
57730;SDS011;43570;47.476;19.040;2023-04-30T11:32:31;3.42;;;2.28;;
57730;SDS011;43570;47.476;19.040;2023-04-30T11:34:59;3.53;;;2.55;;
57730;SDS011;43570;47.476;19.040;2023-04-30T11:37:38;3.62;;;2.10;;
57730;SDS011;43570;47.476;19.040;2023-04-30T11:40:08;4.00;;;2.75;;
57730;SDS011;43570;47.476;19.040;2023-04-30T11:42:35;4.05;;;2.67;;
57730;SDS011;43570;47.476;19.040;2023-04-30T11:45:10;4.60;;;2.42;;
57730;SDS011;43570;47.476;19.040;2023-04-30T11:47:39;4.32;;;2.50;;
57730;SDS011;43570;47.476;19.040;2023-04-30T11:50:09;3.10;;;2.20;;
57730;SDS011;43570;47.476;19.040;2023-04-30T11:52:35;6.45;;;2.80;;
57730;SDS011;43570;47.476;19.040;2023-04-30T11:55:04;3.17;;;2.40;;
57730;SDS011;43570;47.476;19.040;2023-04-30T11:57:38;4.68;;;2.72;;
57730;SDS011;43570;47.476;19.040;2023-04-30T12:00:14;4.80;;;2.62;;
57730;SDS011;43570;47.476;19.040;2023-04-30T12:02:41;3.75;;;2.30;;
57730;SDS011;43570;47.476;19.040;2023-04-30T12:05:12;3.10;;;2.40;;
57730;SDS011;43570;47.476;19.040;2023-04-30T12:07:43;3.20;;;2.00;;
57730;SDS011;43570;47.476;19.040;2023-04-30T12:10:10;3.20;;;2.30;;
57730;SDS011;43570;47.476;19.040;2023-04-30T12:12:36;3.95;;;2.03;;
57730;SDS011;43570;47.476;19.040;2023-04-30T12:15:09;3.78;;;2.05;;
57730;SDS011;43570;47.476;19.040;2023-04-30T12:17:38;3.20;;;2.37;;
57730;SDS011;43570;47.476;19.040;2023-04-30T12:20:04;2.92;;;2.35;;
57730;SDS011;43570;47.476;19.040;2023-04-30T12:22:30;3.67;;;2.45;;
57730;SDS011;43570;47.476;19.040;2023-04-30T12:24:58;3.28;;;2.10;;
57730;SDS011;43570;47.476;19.040;2023-04-30T12:27:23;2.25;;;2.05;;
57730;SDS011;43570;47.476;19.040;2023-04-30T12:29:49;2.12;;;1.92;;
57730;SDS011;43570;47.476;19.040;2023-04-30T12:32:20;2.40;;;2.03;;
57730;SDS011;43570;47.476;19.040;2023-04-30T12:34:45;3.22;;;2.50;;
57730;SDS011;43570;47.476;19.040;2023-04-30T12:37:13;2.83;;;1.83;;
57730;SDS011;43570;47.476;19.040;2023-04-30T12:39:40;3.40;;;2.12;;
57730;SDS011;43570;47.476;19.040;2023-04-30T12:42:05;2.70;;;1.85;;
57730;SDS011;43570;47.476;19.040;2023-04-30T12:44:32;4.75;;;3.33;;
57730;SDS011;43570;47.476;19.040;2023-04-30T12:47:07;2.80;;;2.03;;
57730;SDS011;43570;47.476;19.040;2023-04-30T12:49:33;3.08;;;2.25;;
57730;SDS011;43570;47.476;19.040;2023-04-30T12:54:35;3.85;;;2.08;;
57730;SDS011;43570;47.476;19.040;2023-04-30T12:57:03;2.58;;;1.92;;
57730;SDS011;43570;47.476;19.040;2023-04-30T12:59:30;2.42;;;1.98;;
57730;SDS011;43570;47.476;19.040;2023-04-30T13:02:09;2.25;;;1.85;;
57730;SDS011;43570;47.476;19.040;2023-04-30T13:04:36;4.53;;;2.42;;
57730;SDS011;43570;47.476;19.040;2023-04-30T13:07:02;2.42;;;1.90;;
57730;SDS011;43570;47.476;19.040;2023-04-30T13:09:28;2.80;;;1.95;;
57730;SDS011;43570;47.476;19.040;2023-04-30T13:11:55;1.70;;;1.60;;
57730;SDS011;43570;47.476;19.040;2023-04-30T13:14:20;2.67;;;1.80;;
57730;SDS011;43570;47.476;19.040;2023-04-30T13:16:46;3.65;;;2.20;;
57730;SDS011;43570;47.476;19.040;2023-04-30T13:19:12;3.12;;;2.05;;
57730;SDS011;43570;47.476;19.040;2023-04-30T13:21:37;1.95;;;1.75;;
57730;SDS011;43570;47.476;19.040;2023-04-30T13:24:02;2.92;;;2.10;;
57730;SDS011;43570;47.476;19.040;2023-04-30T13:26:28;4.30;;;2.33;;
57730;SDS011;43570;47.476;19.040;2023-04-30T13:28:54;3.30;;;2.12;;
57730;SDS011;43570;47.476;19.040;2023-04-30T13:31:19;1.77;;;1.60;;
57730;SDS011;43570;47.476;19.040;2023-04-30T13:33:46;2.83;;;2.10;;
57730;SDS011;43570;47.476;19.040;2023-04-30T13:36:11;2.80;;;1.87;;
57730;SDS011;43570;47.476;19.040;2023-04-30T13:38:36;3.35;;;1.80;;
57730;SDS011;43570;47.476;19.040;2023-04-30T13:41:03;2.42;;;1.50;;
57730;SDS011;43570;47.476;19.040;2023-04-30T13:43:29;4.40;;;2.12;;
57730;SDS011;43570;47.476;19.040;2023-04-30T13:45:55;4.40;;;2.10;;
57730;SDS011;43570;47.476;19.040;2023-04-30T13:48:22;3.12;;;1.95;;
57730;SDS011;43570;47.476;19.040;2023-04-30T13:50:47;2.08;;;1.83;;
57730;SDS011;43570;47.476;19.040;2023-04-30T13:53:13;1.67;;;1.55;;
57730;SDS011;43570;47.476;19.040;2023-04-30T13:55:39;2.78;;;1.75;;
57730;SDS011;43570;47.476;19.040;2023-04-30T13:58:04;2.75;;;1.65;;
57730;SDS011;43570;47.476;19.040;2023-04-30T14:00:30;2.85;;;1.75;;
57730;SDS011;43570;47.476;19.040;2023-04-30T14:02:55;1.70;;;1.60;;
57730;SDS011;43570;47.476;19.040;2023-04-30T14:05:20;2.45;;;1.90;;
57730;SDS011;43570;47.476;19.040;2023-04-30T14:07:46;2.12;;;1.70;;
57730;SDS011;43570;47.476;19.040;2023-04-30T14:10:11;2.28;;;1.60;;
57730;SDS011;43570;47.476;19.040;2023-04-30T14:12:37;2.60;;;1.60;;
57730;SDS011;43570;47.476;19.040;2023-04-30T14:15:03;2.72;;;1.92;;
57730;SDS011;43570;47.476;19.040;2023-04-30T14:17:29;1.60;;;1.35;;
57730;SDS011;43570;47.476;19.040;2023-04-30T14:19:55;2.95;;;1.70;;
57730;SDS011;43570;47.476;19.040;2023-04-30T14:22:21;3.28;;;1.80;;
57730;SDS011;43570;47.476;19.040;2023-04-30T14:24:48;1.87;;;1.60;;
57730;SDS011;43570;47.476;19.040;2023-04-30T14:27:14;2.35;;;1.75;;
57730;SDS011;43570;47.476;19.040;2023-04-30T14:29:39;2.50;;;1.83;;
57730;SDS011;43570;47.476;19.040;2023-04-30T14:32:05;3.03;;;1.80;;
57730;SDS011;43570;47.476;19.040;2023-04-30T14:34:30;3.92;;;2.62;;
57730;SDS011;43570;47.476;19.040;2023-04-30T14:36:56;2.75;;;1.90;;
57730;SDS011;43570;47.476;19.040;2023-04-30T14:39:23;2.92;;;2.10;;
57730;SDS011;43570;47.476;19.040;2023-04-30T14:41:49;3.53;;;1.62;;
57730;SDS011;43570;47.476;19.040;2023-04-30T14:44:15;4.32;;;2.20;;
57730;SDS011;43570;47.476;19.040;2023-04-30T14:46:40;3.28;;;1.83;;
57730;SDS011;43570;47.476;19.040;2023-04-30T14:49:06;2.58;;;2.10;;
57730;SDS011;43570;47.476;19.040;2023-04-30T14:51:31;2.05;;;1.60;;
57730;SDS011;43570;47.476;19.040;2023-04-30T14:53:57;2.35;;;1.80;;